createdAt,value
2022-08-10T00:01:51.361Z,22.85
2022-08-10T00:04:24.535Z,22.92
2022-08-10T00:06:54.675Z,22.95
2022-08-10T00:09:23.029Z,23.14
2022-08-10T00:11:52.197Z,23.39
2022-08-10T00:14:19.874Z,23.41
2022-08-10T00:16:48.019Z,23.78
2022-08-10T00:19:16.594Z,23.99
2022-08-10T00:21:47.469Z,24.00
2022-08-10T00:24:15.449Z,23.85
2022-08-10T00:27:52.616Z,23.76
2022-08-10T00:29:32.196Z,23.85
2022-08-10T00:32:00.063Z,23.87
2022-08-10T00:34:35.189Z,24.11
2022-08-10T00:37:03.066Z,24.19
2022-08-10T00:39:36.426Z,24.53
2022-08-10T00:42:13.300Z,24.66
2022-08-10T00:44:49.090Z,24.68
2022-08-10T00:47:36.054Z,24.61
2022-08-10T00:50:08.951Z,24.46
2022-08-10T00:52:39.334Z,24.59
2022-08-10T00:55:08.751Z,24.59
2022-08-10T00:57:36.710Z,24.47
2022-08-10T01:00:06.232Z,24.49
2022-08-10T01:02:34.330Z,24.60
2022-08-10T01:05:09.664Z,24.70
2022-08-10T01:08:00.945Z,24.65
2022-08-10T01:10:38.852Z,24.70
2022-08-10T01:13:06.574Z,25.02
2022-08-10T01:15:43.320Z,24.92
2022-08-10T01:18:21.788Z,25.00
2022-08-10T01:21:04.354Z,24.98
2022-08-10T01:24:15.847Z,24.65
2022-08-10T01:27:07.485Z,24.75
2022-08-10T01:30:00.989Z,24.89
2022-08-10T01:33:01.478Z,24.78
2022-08-10T01:36:08.247Z,24.88
2022-08-10T01:38:50.093Z,24.77
2022-08-10T01:41:26.486Z,24.88
2022-08-10T01:44:15.258Z,25.03
2022-08-10T01:46:56.595Z,24.97
2022-08-10T01:49:26.631Z,25.02
2022-08-10T01:52:00.626Z,25.04
2022-08-10T01:54:30.302Z,25.07
2022-08-10T01:57:00.420Z,24.83
2022-08-10T01:59:32.309Z,24.64
2022-08-10T02:02:12.099Z,24.65
2022-08-10T02:04:41.921Z,24.70
2022-08-10T02:07:19.486Z,24.67
2022-08-10T02:09:51.679Z,24.75
2022-08-10T02:12:31.689Z,24.99
2022-08-10T02:15:10.857Z,24.98
2022-08-10T02:17:57.295Z,25.09
2022-08-10T02:20:39.981Z,24.94
2022-08-10T02:23:11.778Z,24.81
2022-08-10T02:25:43.641Z,24.92
2022-08-10T02:28:29.917Z,24.84
2022-08-10T02:31:06.176Z,24.47
2022-08-10T02:33:45.507Z,24.34
2022-08-10T02:36:33.109Z,24.36
2022-08-10T02:39:03.062Z,24.56
2022-08-10T02:45:12.480Z,24.45
2022-08-10T02:45:17.970Z,24.51
2022-08-10T02:47:55.947Z,24.49
2022-08-10T02:50:32.048Z,24.71
2022-08-10T02:53:06.761Z,24.64
2022-08-10T02:55:46.625Z,25.01
2022-08-10T02:58:33.155Z,24.82
2022-08-10T03:01:09.842Z,24.94
2022-08-10T03:04:09.318Z,24.94
2022-08-10T03:06:44.288Z,24.63
2022-08-10T03:09:15.159Z,24.97
2022-08-10T03:12:35.507Z,25.11
2022-08-10T03:14:40.691Z,24.84
2022-08-10T03:17:13.662Z,24.97
2022-08-10T03:20:33.268Z,24.82
2022-08-10T03:22:41.283Z,24.86
2022-08-10T03:25:16.480Z,24.57
2022-08-10T03:27:47.471Z,24.57
2022-08-10T03:30:29.601Z,24.65
2022-08-10T03:33:07.409Z,24.40
2022-08-10T03:36:43.365Z,24.49
2022-08-10T03:38:34.085Z,24.64
2022-08-10T03:41:08.063Z,24.30
2022-08-10T03:43:41.684Z,24.51
2022-08-10T05:56:22.156Z,25.89
2022-08-10T05:58:50.072Z,26.09
2022-08-10T06:02:31.477Z,26.32
2022-08-10T06:05:36.763Z,26.46
2022-08-10T06:08:12.569Z,26.68
2022-08-10T06:12:16.497Z,26.86
2022-08-10T06:13:59.817Z,26.99
2022-08-10T06:16:40.846Z,27.22
2022-08-10T06:19:10.248Z,27.02
2022-08-10T06:21:39.412Z,27.66
2022-08-10T06:24:25.469Z,27.85
2022-08-10T06:26:59.373Z,27.31
2022-08-10T06:29:30.867Z,27.36
2022-08-10T06:31:59.973Z,27.87
2022-08-10T06:34:32.038Z,28.88
2022-08-10T06:37:03.134Z,29.59
2022-08-10T06:39:34.590Z,29.71
2022-08-10T06:42:16.310Z,29.98
2022-08-10T06:44:56.833Z,30.18
2022-08-10T06:47:29.739Z,29.86
2022-08-10T06:50:02.793Z,28.93
2022-08-10T06:52:38.431Z,29.03
2022-08-10T06:55:10.335Z,28.51
2022-08-10T06:57:40.479Z,28.75
2022-08-10T07:00:10.056Z,30.30
2022-08-10T07:03:01.772Z,30.87
2022-08-10T07:05:38.318Z,31.53
2022-08-10T07:08:09.723Z,32.48
2022-08-10T07:10:41.260Z,32.25
2022-08-10T07:14:17.435Z,33.08
2022-08-10T07:16:08.381Z,33.82
2022-08-10T07:18:38.632Z,33.19
2022-08-10T07:21:08.131Z,33.67
2022-08-10T07:23:57.888Z,35.03
2022-08-10T08:32:40.603Z,32.77
2022-08-10T08:40:43.484Z,35.07
2022-08-10T08:44:48.031Z,32.70
2022-08-10T08:48:04.504Z,34.38
2022-08-10T08:50:14.743Z,33.71
2022-08-10T08:53:02.999Z,31.24
2022-08-10T08:56:06.112Z,32.09
2022-08-10T08:59:02.497Z,34.40
2022-08-10T09:01:58.621Z,34.22
2022-08-10T09:04:44.690Z,32.73
2022-08-10T09:07:39.528Z,32.45
2022-08-10T09:10:19.396Z,32.07
2022-08-10T09:13:01.519Z,33.49
2022-08-10T09:15:41.747Z,33.56
2022-08-10T09:18:21.532Z,32.39
2022-08-10T09:20:48.959Z,32.70
2022-08-10T09:24:01.808Z,33.87
2022-08-10T09:26:22.197Z,33.73
2022-08-10T09:29:11.906Z,33.44
2022-08-10T09:36:13.293Z,34.11
2022-08-10T09:36:25.566Z,34.83
2022-08-10T09:38:37.880Z,35.68
2022-08-10T09:41:35.996Z,33.79
2022-08-10T09:44:33.944Z,33.13
2022-08-10T09:48:10.729Z,33.17
2022-08-10T09:54:04.657Z,33.59
2022-08-10T09:56:59.809Z,34.66
2022-08-10T10:00:01.304Z,32.08
2022-08-10T10:02:44.204Z,31.86
2022-08-10T10:05:51.290Z,32.01
2022-08-10T10:08:42.318Z,33.41
2022-08-10T10:11:35.386Z,31.94
2022-08-10T10:14:30.508Z,33.30
2022-08-10T10:17:15.107Z,33.48
2022-08-10T10:20:09.778Z,33.27
2022-08-10T10:22:59.279Z,31.81
2022-08-10T10:25:50.340Z,32.60
2022-08-10T10:28:50.138Z,33.48
2022-08-10T10:31:38.440Z,31.82
2022-08-10T10:34:25.956Z,33.21
2022-08-10T10:36:57.932Z,32.60
2022-08-10T10:39:28.459Z,32.71
2022-08-10T10:42:45.096Z,32.81
2022-08-10T10:45:23.789Z,31.65
2022-08-10T10:48:17.774Z,31.81
2022-08-10T10:51:24.343Z,32.15
2022-08-10T10:54:13.488Z,31.48
2022-08-10T10:57:16.427Z,32.18
2022-08-10T11:00:11.337Z,32.64
2022-08-10T11:03:04.438Z,32.38
2022-08-10T11:05:55.222Z,33.05
2022-08-10T11:08:28.989Z,32.39
2022-08-10T11:12:01.885Z,31.68
2022-08-10T11:14:37.305Z,32.41
2022-08-10T11:17:49.497Z,32.42
2022-08-10T11:20:59.672Z,32.00
2022-08-10T11:24:42.676Z,32.87
2022-08-10T11:27:05.815Z,31.95
2022-08-10T11:29:49.955Z,32.70
2022-08-10T11:32:26.198Z,32.86
2022-08-10T11:35:18.886Z,32.00
2022-08-10T11:38:32.112Z,32.10
2022-08-10T11:41:05.576Z,30.79
2022-08-10T11:44:01.348Z,31.43
2022-08-10T11:46:35.031Z,31.10
2022-08-10T11:49:12.151Z,31.16
2022-08-10T11:51:48.079Z,30.77
2022-08-10T11:54:40.946Z,31.46
2022-08-10T11:57:10.537Z,31.60
2022-08-10T11:59:59.657Z,31.07
2022-08-10T12:02:31.536Z,30.70
2022-08-10T12:05:10.810Z,31.15
2022-08-10T12:08:54.767Z,31.89
2022-08-10T12:10:40.654Z,32.38
2022-08-10T12:13:11.679Z,31.75
2022-08-10T12:15:48.368Z,31.34
2022-08-10T12:18:24.213Z,31.20
2022-08-10T12:21:01.346Z,32.00
2022-08-10T12:23:48.231Z,31.73
2022-08-10T12:26:38.203Z,32.25
2022-08-10T12:29:25.481Z,31.80
2022-08-10T12:32:27.306Z,31.84
2022-08-10T12:35:12.348Z,31.92
2022-08-10T12:38:06.090Z,31.65
2022-08-10T12:40:42.268Z,31.30
2022-08-10T12:44:06.867Z,31.67
2022-08-10T12:46:18.501Z,32.03
2022-08-10T12:49:00.171Z,31.83
2022-08-10T12:51:30.531Z,31.69
2022-08-10T12:54:16.727Z,31.51
2022-08-10T12:57:10.385Z,30.91
2022-08-10T12:59:44.170Z,30.65
2022-08-10T13:02:21.595Z,31.00
2022-08-10T13:04:51.719Z,31.05
2022-08-10T13:08:25.393Z,31.06
2022-08-10T13:10:16.347Z,31.34
2022-08-10T13:12:48.901Z,31.28
2022-08-10T13:15:49.969Z,31.89
2022-08-10T13:18:28.917Z,31.63
2022-08-10T13:21:20.964Z,31.79
2022-08-10T13:24:04.094Z,31.02
2022-08-10T13:26:38.886Z,31.42
2022-08-10T13:29:33.269Z,31.25
2022-08-10T13:32:09.706Z,31.18
2022-08-10T13:34:45.727Z,31.28
2022-08-10T13:37:21.460Z,31.42
2022-08-10T13:39:59.108Z,31.78
2022-08-10T13:42:33.075Z,31.93
2022-08-10T13:45:16.510Z,31.36
2022-08-10T13:47:50.165Z,31.46
2022-08-10T13:50:33.310Z,31.16
2022-08-10T13:53:13.892Z,31.60
2022-08-10T13:56:01.656Z,31.26
2022-08-10T13:58:30.771Z,30.89
2022-08-10T14:01:10.140Z,31.23
2022-08-10T14:03:40.771Z,31.23
2022-08-10T14:06:15.449Z,31.20
2022-08-10T14:08:48.600Z,31.39
2022-08-10T14:11:18.415Z,31.58
2022-08-10T14:13:53.186Z,31.42
2022-08-10T14:16:22.288Z,31.34
2022-08-10T14:18:57.014Z,31.29
2022-08-10T14:21:32.038Z,31.61
2022-08-10T14:24:09.281Z,31.91
2022-08-10T14:26:50.708Z,31.12
2022-08-10T14:29:49.138Z,31.34
2022-08-10T14:32:19.044Z,31.29
2022-08-10T14:36:15.052Z,31.53
2022-08-10T14:37:50.874Z,31.42
2022-08-10T14:40:22.307Z,31.28
2022-08-10T14:42:52.817Z,31.02
2022-08-10T14:45:32.029Z,31.30
2022-08-10T14:48:10.084Z,31.56
2022-08-10T14:50:55.879Z,31.31
2022-08-10T14:53:36.547Z,31.39
2022-08-10T14:56:09.685Z,31.44
2022-08-10T14:59:06.054Z,31.46
2022-08-10T15:01:59.926Z,31.35
2022-08-10T15:04:24.804Z,31.23
2022-08-10T15:07:03.049Z,31.15
2022-08-10T15:10:01.445Z,31.31
2022-08-10T15:12:38.342Z,31.48
2022-08-10T15:15:18.057Z,31.46
2022-08-10T15:17:58.837Z,31.34
2022-08-10T15:20:29.804Z,31.39
2022-08-10T15:23:31.220Z,31.38
2022-08-10T15:26:10.965Z,31.36
2022-08-10T15:29:24.427Z,31.47
2022-08-10T15:31:56.476Z,30.81
2022-08-10T15:34:44.563Z,30.92
2022-08-10T15:37:36.801Z,31.08
2022-08-10T15:40:24.960Z,30.85
2022-08-10T15:43:05.719Z,30.99
2022-08-10T15:46:03.397Z,31.06
2022-08-10T15:48:48.743Z,31.04
2022-08-10T15:51:54.025Z,31.00
2022-08-10T15:54:54.411Z,31.13
2022-08-10T15:57:58.510Z,31.22
2022-08-10T16:02:03.952Z,30.97
2022-08-10T16:04:34.251Z,30.68
2022-08-10T16:07:49.857Z,31.14
2022-08-10T16:10:38.685Z,31.19
2022-08-10T16:13:50.953Z,31.29
2022-08-10T16:16:41.193Z,31.21
2022-08-10T16:19:23.915Z,30.99
2022-08-10T16:21:59.081Z,30.67
2022-08-10T16:24:31.860Z,30.85
2022-08-10T16:27:04.863Z,30.70
2022-08-10T16:29:56.057Z,30.77
2022-08-10T16:32:24.385Z,30.78
2022-08-10T16:34:53.920Z,30.80
2022-08-10T16:37:22.275Z,30.66
2022-08-10T16:39:57.686Z,30.73
2022-08-10T16:42:34.456Z,31.01
2022-08-10T16:45:15.108Z,30.58
2022-08-10T16:47:48.427Z,30.66
2022-08-10T16:50:23.220Z,30.48
2022-08-10T16:52:53.037Z,30.75
2022-08-10T16:55:48.836Z,30.34
2022-08-10T16:58:14.285Z,30.32
2022-08-10T17:00:49.514Z,30.14
2022-08-10T17:04:07.649Z,30.13
2022-08-10T17:06:30.513Z,29.98
2022-08-10T17:09:01.461Z,29.99
2022-08-10T17:11:33.512Z,29.95
2022-08-10T17:14:02.802Z,29.97
2022-08-10T17:16:41.761Z,29.92
2022-08-10T17:19:18.826Z,29.78
2022-08-10T17:21:52.327Z,29.75
2022-08-10T17:24:26.480Z,29.65
2022-08-10T17:26:57.710Z,29.77
2022-08-10T17:29:57.879Z,29.58
2022-08-10T17:32:43.932Z,29.57
2022-08-10T17:35:23.484Z,29.53
2022-08-10T17:38:13.298Z,29.37
2022-08-10T17:41:00.689Z,29.32
2022-08-10T17:43:46.117Z,29.17
2022-08-10T17:46:17.170Z,29.13
2022-08-10T17:48:44.747Z,29.01
2022-08-10T17:51:15.508Z,28.87
2022-08-10T17:53:47.536Z,28.74
2022-08-10T17:56:18.825Z,28.63
2022-08-10T17:58:51.287Z,28.71
2022-08-10T18:01:41.717Z,28.47
2022-08-10T18:04:19.316Z,28.20
2022-08-10T18:06:54.666Z,28.20
2022-08-10T18:09:33.057Z,28.16
2022-08-10T18:12:10.989Z,28.04
2022-08-10T18:14:49.672Z,28.00
2022-08-10T18:17:31.955Z,27.95
2022-08-10T18:20:07.836Z,27.84
2022-08-10T18:22:43.369Z,27.74
2022-08-10T18:25:18.403Z,27.82
2022-08-10T18:28:03.976Z,27.80
2022-08-10T18:30:45.108Z,27.77
2022-08-10T18:33:14.384Z,27.58
2022-08-10T18:35:45.056Z,27.38
2022-08-10T18:38:13.459Z,27.52
2022-08-10T18:40:51.042Z,27.21
2022-08-10T18:44:06.270Z,27.31
2022-08-10T18:46:16.442Z,27.34
2022-08-10T18:48:52.483Z,27.09
2022-08-10T18:51:27.042Z,27.07
2022-08-10T18:54:31.480Z,26.93
2022-08-10T18:57:32.245Z,26.89
2022-08-10T19:00:07.593Z,26.95
2022-08-10T19:02:44.845Z,26.83
2022-08-10T19:05:30.680Z,26.53
2022-08-10T19:08:30.241Z,26.41
2022-08-10T19:11:47.868Z,26.26
2022-08-10T19:14:27.226Z,26.21
2022-08-10T19:17:05.725Z,26.07
2022-08-10T19:20:02.170Z,26.21
2022-08-10T19:22:41.385Z,26.24
2022-08-10T19:26:39.383Z,26.21
2022-08-10T19:28:33.705Z,26.35
2022-08-10T19:31:44.373Z,26.25
2022-08-10T19:34:40.116Z,26.43
2022-08-10T19:37:10.494Z,26.34
2022-08-10T19:39:51.621Z,26.16
2022-08-10T19:42:31.081Z,26.31
2022-08-10T19:46:02.189Z,26.38
2022-08-10T19:48:41.194Z,26.34
2022-08-10T19:51:18.653Z,25.91
2022-08-10T19:54:23.557Z,25.76
2022-08-10T19:57:14.224Z,25.65
2022-08-10T20:00:19.176Z,25.59
2022-08-10T20:03:17.015Z,25.47
2022-08-10T20:06:13.394Z,25.39
2022-08-10T20:08:59.728Z,25.40
2022-08-10T20:11:46.380Z,25.38
2022-08-10T20:14:22.970Z,25.33
2022-08-10T20:16:56.046Z,25.31
2022-08-10T20:19:52.403Z,25.32
2022-08-10T20:22:29.237Z,25.23
2022-08-10T20:25:04.632Z,25.05
2022-08-10T20:27:57.796Z,25.07
2022-08-10T20:30:37.465Z,25.05
2022-08-10T20:33:29.301Z,25.05
2022-08-10T20:36:19.461Z,25.06
2022-08-10T20:39:01.938Z,25.07
2022-08-10T20:41:46.471Z,25.17
2022-08-10T20:44:29.191Z,25.16
2022-08-10T20:47:22.068Z,25.26
2022-08-10T20:50:01.312Z,25.41
2022-08-10T20:52:31.624Z,25.32
2022-08-10T20:55:02.895Z,25.17
2022-08-10T20:57:55.382Z,25.18
2022-08-10T21:00:48.895Z,25.14
2022-08-10T21:03:40.674Z,25.18
2022-08-10T21:06:43.366Z,25.30
2022-08-10T21:09:37.369Z,25.21
2022-08-10T21:12:30.335Z,25.13
2022-08-10T21:15:20.518Z,25.12
2022-08-10T21:17:50.695Z,25.18
2022-08-10T21:21:06.043Z,25.05
2022-08-10T21:23:38.427Z,25.12
2022-08-10T21:26:08.120Z,25.07
2022-08-10T21:29:13.357Z,25.14
2022-08-10T21:32:01.716Z,25.24
2022-08-10T21:34:32.122Z,25.41
2022-08-10T21:37:08.442Z,25.25
2022-08-10T21:39:44.703Z,25.28
2022-08-10T21:42:47.401Z,25.08
2022-08-10T21:45:59.173Z,25.05
2022-08-10T21:48:57.751Z,25.10
2022-08-10T21:52:00.609Z,25.08
2022-08-10T21:55:10.547Z,25.19
2022-08-10T21:57:59.293Z,25.33
2022-08-10T22:00:45.737Z,25.15
2022-08-10T22:03:39.287Z,25.37
2022-08-10T22:06:28.062Z,25.42
2022-08-10T22:09:21.903Z,25.26
2022-08-10T22:12:25.015Z,25.26
2022-08-10T22:16:09.950Z,25.41
2022-08-10T22:18:35.889Z,25.28
2022-08-10T22:21:50.438Z,25.46
2022-08-10T22:25:24.571Z,25.35
2022-08-10T22:29:20.759Z,25.25
2022-08-10T22:33:33.384Z,25.24
2022-08-10T22:42:09.470Z,25.15
2022-08-10T22:50:14.021Z,24.94
2022-08-10T22:53:34.703Z,24.89
2022-08-10T22:56:47.973Z,24.87
